createdAt,value
2023-03-12T00:01:14.439Z,2.78
2023-03-12T00:03:40.959Z,3.30
2023-03-12T00:06:10.886Z,3.05
2023-03-12T00:08:37.879Z,2.80
2023-03-12T00:11:12.273Z,3.70
2023-03-12T00:13:39.549Z,2.78
2023-03-12T00:16:15.135Z,2.85
2023-03-12T00:18:42.410Z,2.95
2023-03-12T00:21:09.573Z,2.60
2023-03-12T00:23:36.510Z,3.20
2023-03-12T00:26:08.821Z,3.38
2023-03-12T00:28:36.007Z,2.60
2023-03-12T00:31:03.945Z,2.58
2023-03-12T00:33:30.733Z,2.60
2023-03-12T00:36:00.282Z,3.00
2023-03-12T00:38:26.813Z,2.60
2023-03-12T00:40:53.302Z,2.50
2023-03-12T00:43:19.788Z,2.15
2023-03-12T00:45:46.310Z,2.60
2023-03-12T00:48:12.801Z,2.70
2023-03-12T00:50:39.295Z,2.25
2023-03-12T00:53:05.837Z,2.38
2023-03-12T00:55:33.522Z,2.30
2023-03-12T00:58:00.043Z,2.23
2023-03-12T01:00:26.603Z,2.50
2023-03-12T01:02:53.184Z,2.33
2023-03-12T01:05:19.778Z,2.45
2023-03-12T01:07:46.290Z,2.72
2023-03-12T01:10:15.069Z,2.70
2023-03-12T01:12:42.094Z,2.55
2023-03-12T01:15:09.661Z,3.10
2023-03-12T01:17:36.240Z,2.90
2023-03-12T01:20:02.889Z,2.80
2023-03-12T01:22:29.431Z,2.07
2023-03-12T01:24:55.937Z,2.13
2023-03-12T01:27:22.428Z,2.50
2023-03-12T01:29:49.172Z,2.75
2023-03-12T01:32:17.099Z,2.58
2023-03-12T01:34:44.536Z,2.47
2023-03-12T01:37:11.256Z,1.95
2023-03-12T01:39:37.905Z,2.10
2023-03-12T01:42:05.085Z,2.17
2023-03-12T01:44:48.196Z,2.10
2023-03-12T01:47:14.670Z,2.07
2023-03-12T01:49:41.145Z,1.75
2023-03-12T01:52:10.985Z,1.85
2023-03-12T01:54:55.224Z,1.88
2023-03-12T01:57:38.390Z,1.50
2023-03-12T02:00:09.608Z,1.80
2023-03-12T02:02:36.657Z,1.63
2023-03-12T02:05:24.697Z,1.67
2023-03-12T02:07:51.158Z,1.70
2023-03-12T02:10:17.716Z,1.58
2023-03-12T02:12:44.301Z,2.07
2023-03-12T02:15:11.363Z,1.52
2023-03-12T02:17:40.372Z,1.40
2023-03-12T02:20:16.303Z,1.40
2023-03-12T02:22:47.117Z,1.08
2023-03-12T02:25:34.742Z,1.40
2023-03-12T02:28:03.579Z,0.90
2023-03-12T02:30:31.043Z,1.00
2023-03-12T02:33:00.072Z,0.70
2023-03-12T02:35:26.605Z,0.57
2023-03-12T02:37:55.489Z,0.63
2023-03-12T02:40:34.375Z,1.00
2023-03-12T02:43:01.431Z,0.60
2023-03-12T02:45:29.825Z,0.52
2023-03-12T02:47:56.376Z,0.70
2023-03-12T02:50:23.072Z,0.50
2023-03-12T02:52:49.540Z,0.77
2023-03-12T02:55:16.069Z,0.50
2023-03-12T02:57:43.797Z,0.80
2023-03-12T03:00:12.577Z,0.75
2023-03-12T03:02:40.034Z,1.07
2023-03-12T03:05:07.864Z,0.80
2023-03-12T03:07:34.394Z,0.50
2023-03-12T03:10:04.201Z,0.77
2023-03-12T03:12:35.222Z,0.50
2023-03-12T03:15:02.322Z,0.70
2023-03-12T03:17:29.005Z,0.57
2023-03-12T03:19:55.578Z,0.80
2023-03-12T03:22:22.831Z,0.75
2023-03-12T03:24:49.644Z,0.40
2023-03-12T03:27:16.174Z,0.50
2023-03-12T03:29:42.625Z,0.60
2023-03-12T03:32:09.126Z,0.47
2023-03-12T03:34:35.592Z,0.63
2023-03-12T03:37:02.553Z,0.50
2023-03-12T03:39:29.811Z,0.40
2023-03-12T03:41:56.379Z,0.25
2023-03-12T03:44:23.145Z,0.50
2023-03-12T03:46:50.006Z,0.45
2023-03-12T03:49:16.998Z,0.40
2023-03-12T03:51:43.658Z,0.93
2023-03-12T03:54:10.744Z,0.50
2023-03-12T03:56:37.207Z,0.80
2023-03-12T03:59:04.121Z,0.47
2023-03-12T04:01:31.438Z,0.50
2023-03-12T04:03:58.924Z,0.30
2023-03-12T04:06:25.811Z,0.90
2023-03-12T04:08:52.284Z,0.85
2023-03-12T04:11:20.598Z,0.80
2023-03-12T04:13:47.557Z,0.60
2023-03-12T04:16:14.628Z,0.87
2023-03-12T04:18:41.386Z,0.45
2023-03-12T04:21:09.880Z,0.40
2023-03-12T04:23:37.010Z,0.40
2023-03-12T04:26:04.293Z,0.70
2023-03-12T04:28:30.812Z,0.50
2023-03-12T04:31:02.510Z,0.50
2023-03-12T04:33:30.707Z,0.77
2023-03-12T04:35:57.286Z,0.43
2023-03-12T04:38:24.829Z,0.80
2023-03-12T04:41:01.923Z,0.50
2023-03-12T04:43:29.169Z,0.60
2023-03-12T04:45:56.061Z,0.40
2023-03-12T04:48:22.680Z,0.50
2023-03-12T04:50:49.599Z,0.45
2023-03-12T04:53:16.174Z,0.63
2023-03-12T04:55:42.677Z,0.80
2023-03-12T04:58:10.747Z,0.40
2023-03-12T05:00:38.745Z,1.02
2023-03-12T05:03:05.290Z,0.73
2023-03-12T05:05:31.993Z,0.40
2023-03-12T05:07:59.210Z,0.60
2023-03-12T05:10:25.813Z,0.90
2023-03-12T05:12:52.390Z,0.60
2023-03-12T05:15:19.831Z,0.60
2023-03-12T05:17:46.265Z,0.50
2023-03-12T05:20:13.012Z,0.80
2023-03-12T05:22:39.733Z,0.22
2023-03-12T05:25:06.663Z,0.52
2023-03-12T05:27:33.331Z,0.30
2023-03-12T05:29:59.795Z,0.40
2023-03-12T05:32:26.311Z,0.57
2023-03-12T05:34:52.897Z,0.30
2023-03-12T05:37:19.383Z,0.55
2023-03-12T05:39:46.705Z,0.68
2023-03-12T05:42:14.166Z,0.77
2023-03-12T05:44:41.406Z,0.60
2023-03-12T05:47:08.273Z,0.60
2023-03-12T05:49:34.864Z,0.32
2023-03-12T05:52:01.446Z,0.63
2023-03-12T05:54:29.099Z,0.20
2023-03-12T05:56:56.319Z,0.40
2023-03-12T05:59:23.001Z,0.75
2023-03-12T06:01:49.498Z,0.60
2023-03-12T06:04:16.225Z,0.50
2023-03-12T06:06:42.760Z,0.43
2023-03-12T06:09:09.631Z,0.43
2023-03-12T06:11:36.177Z,1.00
2023-03-12T06:14:02.750Z,0.28
2023-03-12T06:16:29.641Z,0.43
2023-03-12T06:18:58.923Z,0.60
2023-03-12T06:21:28.915Z,0.68
2023-03-12T06:23:55.564Z,0.68
2023-03-12T06:26:22.796Z,0.65
2023-03-12T06:28:50.561Z,0.73
2023-03-12T06:31:17.970Z,0.80
2023-03-12T06:33:44.554Z,0.80
2023-03-12T06:36:11.287Z,0.75
2023-03-12T06:38:37.865Z,1.10
2023-03-12T06:41:10.033Z,0.55
2023-03-12T06:43:37.983Z,0.90
2023-03-12T06:46:06.936Z,0.80
2023-03-12T06:48:36.625Z,0.90
2023-03-12T06:51:04.302Z,0.82
2023-03-12T06:53:31.346Z,0.75
2023-03-12T06:55:58.350Z,1.10
2023-03-12T06:58:25.174Z,0.90
2023-03-12T07:00:52.062Z,0.60
2023-03-12T07:03:18.793Z,0.82
2023-03-12T07:05:46.320Z,1.10
2023-03-12T07:08:13.284Z,0.90
2023-03-12T07:10:40.161Z,1.63
2023-03-12T07:13:06.824Z,0.43
2023-03-12T07:15:33.789Z,0.98
2023-03-12T07:18:01.386Z,0.43
2023-03-12T07:20:27.846Z,0.40
2023-03-12T07:22:54.317Z,0.30
2023-03-12T07:25:21.018Z,0.63
2023-03-12T07:27:47.502Z,0.60
2023-03-12T07:30:14.214Z,0.70
2023-03-12T07:32:41.484Z,0.70
2023-03-12T07:35:08.332Z,0.52
2023-03-12T07:37:34.775Z,0.50
2023-03-12T07:40:01.582Z,0.88
2023-03-12T07:42:28.384Z,1.10
2023-03-12T07:44:54.830Z,1.07
2023-03-12T07:47:24.465Z,0.80
2023-03-12T07:49:51.506Z,0.90
2023-03-12T07:52:20.109Z,1.23
2023-03-12T07:54:46.830Z,1.10
2023-03-12T07:57:16.252Z,0.80
2023-03-12T07:59:42.894Z,1.17
2023-03-12T08:02:10.687Z,1.13
2023-03-12T08:04:37.419Z,0.90
2023-03-12T08:07:05.335Z,0.80
2023-03-12T08:09:33.300Z,0.50
2023-03-12T08:11:59.835Z,0.55
2023-03-12T08:14:29.687Z,1.52
2023-03-12T08:16:56.164Z,1.30
2023-03-12T08:19:23.018Z,1.00
2023-03-12T08:21:50.020Z,1.33
2023-03-12T08:24:16.638Z,0.90
2023-03-12T08:26:43.119Z,1.10
2023-03-12T08:29:09.954Z,0.85
2023-03-12T08:31:36.511Z,0.88
2023-03-12T08:34:03.055Z,0.67
2023-03-12T08:36:29.945Z,0.40
2023-03-12T08:38:57.766Z,0.90
2023-03-12T08:41:24.240Z,0.98
2023-03-12T08:43:50.726Z,0.55
2023-03-12T08:46:17.308Z,0.67
2023-03-12T08:48:43.793Z,1.52
2023-03-12T08:51:10.334Z,0.80
2023-03-12T08:53:37.377Z,0.70
2023-03-12T08:56:04.560Z,0.90
2023-03-12T08:58:31.480Z,1.13
2023-03-12T09:00:58.518Z,0.80
2023-03-12T09:03:25.834Z,0.90
2023-03-12T09:06:06.292Z,0.75
2023-03-12T09:08:34.047Z,1.50
2023-03-12T09:11:01.773Z,1.10
2023-03-12T09:13:44.092Z,0.75
2023-03-12T09:16:15.158Z,0.70
2023-03-12T09:18:41.653Z,0.80
2023-03-12T09:21:08.188Z,0.73
2023-03-12T09:23:36.981Z,1.10
2023-03-12T09:26:03.793Z,0.93
2023-03-12T09:28:31.817Z,0.70
2023-03-12T09:31:01.812Z,0.70
2023-03-12T09:33:28.369Z,0.63
2023-03-12T09:35:59.173Z,0.77
2023-03-12T09:38:26.690Z,0.73
2023-03-12T09:40:53.760Z,0.93
2023-03-12T09:43:30.224Z,1.00
2023-03-12T09:45:57.170Z,0.98
2023-03-12T09:48:35.114Z,0.80
2023-03-12T09:51:04.101Z,1.00
2023-03-12T09:53:34.781Z,0.68
2023-03-12T09:56:09.245Z,1.45
2023-03-12T09:58:38.308Z,0.80
2023-03-12T10:01:24.449Z,0.47
2023-03-12T10:04:12.385Z,0.70
2023-03-12T10:06:49.218Z,0.65
2023-03-12T10:09:30.696Z,0.43
2023-03-12T10:12:15.640Z,0.52
2023-03-12T10:15:02.382Z,0.70
2023-03-12T10:18:00.587Z,0.60
2023-03-12T10:20:45.709Z,0.77
2023-03-12T10:23:23.425Z,0.60
2023-03-12T10:26:16.689Z,0.73
2023-03-12T10:28:50.142Z,0.60
2023-03-12T10:32:03.615Z,0.65
2023-03-12T10:34:40.258Z,0.77
2023-03-12T10:37:15.165Z,0.40
2023-03-12T10:39:41.717Z,0.50
2023-03-12T10:42:26.081Z,0.70
2023-03-12T10:44:56.654Z,0.55
2023-03-12T10:47:40.305Z,1.10
2023-03-12T10:50:37.050Z,0.60
2023-03-12T10:53:29.975Z,0.68
2023-03-12T10:56:00.710Z,0.50
2023-03-12T10:58:38.343Z,0.50
2023-03-12T11:01:07.320Z,0.73
2023-03-12T11:03:34.144Z,0.60
2023-03-12T11:06:02.498Z,0.70
2023-03-12T11:08:31.690Z,0.47
2023-03-12T11:10:59.728Z,0.50
2023-03-12T11:13:36.961Z,0.52
2023-03-12T11:16:18.754Z,0.50
2023-03-12T11:19:03.933Z,0.45
2023-03-12T11:21:33.484Z,0.50
2023-03-12T11:23:59.914Z,0.70
2023-03-12T11:26:32.053Z,0.70
2023-03-12T11:29:06.357Z,1.00
2023-03-12T11:31:42.271Z,0.52
2023-03-12T11:34:18.353Z,0.63
2023-03-12T11:36:56.945Z,0.82
2023-03-12T11:39:35.680Z,0.60
2023-03-12T11:42:15.787Z,0.75
2023-03-12T11:45:04.330Z,0.82
2023-03-12T11:47:48.026Z,0.73
2023-03-12T11:50:45.472Z,0.82
2023-03-12T11:53:24.208Z,0.75
2023-03-12T11:56:23.716Z,0.80
2023-03-12T11:58:56.033Z,0.70
2023-03-12T12:01:46.447Z,1.03
2023-03-12T12:04:47.893Z,0.80
2023-03-12T12:07:14.309Z,0.60
2023-03-12T12:10:01.271Z,0.32
2023-03-12T12:12:39.942Z,0.82
2023-03-12T12:15:26.992Z,0.50
2023-03-12T12:18:23.526Z,0.40
2023-03-12T12:20:56.044Z,0.50
2023-03-12T12:23:36.155Z,0.85
2023-03-12T12:26:05.963Z,0.40
2023-03-12T12:28:44.457Z,0.60
2023-03-12T12:31:30.655Z,0.65
2023-03-12T12:34:21.282Z,0.60
2023-03-12T12:36:56.372Z,0.52
2023-03-12T12:39:47.135Z,0.80
2023-03-12T12:42:21.126Z,0.80
2023-03-12T12:44:51.153Z,0.50
2023-03-12T12:47:30.542Z,0.40
2023-03-12T12:49:58.287Z,0.50
2023-03-12T12:52:26.082Z,0.52
2023-03-12T12:54:59.321Z,0.37
2023-03-12T12:57:39.688Z,0.60
2023-03-12T13:00:12.354Z,0.60
2023-03-12T13:02:41.287Z,0.50
2023-03-12T13:05:37.246Z,0.80
2023-03-12T13:08:10.914Z,0.50
2023-03-12T13:10:48.334Z,0.80
2023-03-12T13:13:25.561Z,0.98
2023-03-12T13:16:39.546Z,0.70
2023-03-12T13:19:15.175Z,0.73
2023-03-12T13:21:57.520Z,0.67
2023-03-12T13:24:30.114Z,0.50
2023-03-12T13:27:22.529Z,0.80
2023-03-12T13:29:56.166Z,0.98
2023-03-12T13:32:48.702Z,0.80
2023-03-12T13:35:18.118Z,0.80
2023-03-12T13:37:59.717Z,0.77
2023-03-12T13:40:29.183Z,0.90
2023-03-12T13:43:14.058Z,0.77
2023-03-12T13:46:07.459Z,0.60
2023-03-12T13:48:35.649Z,0.73
2023-03-12T13:51:17.377Z,0.90
2023-03-12T13:53:48.185Z,0.65
2023-03-12T13:56:17.845Z,0.65
2023-03-12T13:58:54.721Z,0.80
2023-03-12T14:01:23.946Z,1.17
2023-03-12T14:03:53.749Z,0.68
2023-03-12T14:06:23.132Z,1.08
2023-03-12T14:09:40.580Z,1.10
2023-03-12T14:12:39.499Z,1.05
2023-03-12T14:15:14.026Z,0.43
2023-03-12T14:17:43.086Z,0.70
2023-03-12T14:20:19.460Z,1.23
2023-03-12T14:22:50.992Z,0.73
2023-03-12T14:25:24.070Z,0.60
2023-03-12T14:27:50.620Z,1.07
2023-03-12T14:30:24.214Z,1.10
2023-03-12T14:32:55.745Z,0.85
2023-03-12T14:35:29.474Z,0.95
2023-03-12T14:38:03.390Z,0.90
2023-03-12T14:40:47.217Z,1.00
2023-03-12T14:43:27.223Z,1.10
2023-03-12T14:45:59.677Z,1.27
2023-03-12T14:48:31.478Z,1.30
2023-03-12T14:50:59.388Z,0.90
2023-03-12T14:53:28.619Z,1.13
2023-03-12T14:56:30.850Z,1.10
2023-03-12T14:58:59.480Z,1.38
2023-03-12T15:01:34.068Z,1.20
2023-03-12T15:04:03.692Z,1.70
2023-03-12T15:06:38.570Z,0.93
2023-03-12T15:09:06.863Z,1.60
2023-03-12T15:11:35.320Z,1.38
2023-03-12T15:14:09.556Z,1.25
2023-03-12T15:16:36.174Z,1.05
2023-03-12T15:19:04.124Z,1.00
2023-03-12T15:21:33.867Z,1.20
2023-03-12T15:24:00.531Z,1.20
2023-03-12T15:26:30.204Z,0.68
2023-03-12T15:29:01.803Z,1.30
2023-03-12T15:31:41.176Z,0.73
2023-03-12T15:34:08.179Z,0.70
2023-03-12T15:36:35.174Z,1.02
2023-03-12T15:39:15.511Z,0.70
2023-03-12T15:41:45.365Z,0.80
2023-03-12T15:44:23.362Z,0.60
2023-03-12T15:46:55.708Z,0.90
2023-03-12T15:49:27.762Z,1.20
2023-03-12T15:52:07.004Z,0.90
2023-03-12T15:54:35.201Z,1.10
2023-03-12T15:57:34.360Z,1.13
2023-03-12T16:00:13.425Z,1.58
2023-03-12T16:03:05.994Z,1.45
2023-03-12T16:05:38.817Z,1.10
2023-03-12T16:08:17.992Z,1.77
2023-03-12T16:10:44.892Z,1.20
2023-03-12T16:13:15.206Z,1.58
2023-03-12T16:15:42.988Z,1.38
2023-03-12T16:18:19.270Z,1.52
2023-03-12T16:20:46.814Z,1.38
2023-03-12T16:23:14.290Z,1.37
2023-03-12T16:25:50.919Z,1.50
2023-03-12T16:28:19.503Z,1.48
2023-03-12T16:30:46.859Z,1.42
2023-03-12T16:33:16.232Z,1.60
2023-03-12T16:35:43.446Z,1.60
2023-03-12T16:38:10.489Z,1.20
2023-03-12T16:40:46.220Z,1.90
2023-03-12T16:43:19.089Z,1.60
2023-03-12T16:45:47.855Z,1.50
2023-03-12T16:48:17.744Z,1.90
2023-03-12T16:50:53.014Z,2.08
2023-03-12T16:53:20.162Z,3.60
2023-03-12T16:55:58.668Z,4.05
2023-03-12T16:58:26.282Z,3.95
2023-03-12T17:00:57.147Z,3.60
2023-03-12T17:03:36.038Z,3.30
2023-03-12T17:06:06.857Z,4.25
2023-03-12T17:08:34.339Z,5.20
2023-03-12T17:11:01.168Z,5.03
2023-03-12T17:13:28.834Z,5.17
2023-03-12T17:15:56.728Z,6.80
2023-03-12T17:18:24.082Z,6.88
2023-03-12T17:20:51.775Z,8.85
2023-03-12T17:23:18.930Z,11.18
2023-03-12T17:25:46.065Z,10.17
2023-03-12T17:28:14.625Z,7.70
2023-03-12T17:30:44.049Z,7.22
2023-03-12T17:33:14.858Z,5.50
2023-03-12T17:35:42.469Z,5.10
2023-03-12T17:38:09.514Z,5.53
2023-03-12T17:40:41.031Z,5.85
2023-03-12T17:43:07.563Z,4.60
2023-03-12T17:45:37.091Z,5.57
2023-03-12T17:48:04.989Z,5.30
2023-03-12T17:50:31.612Z,6.73
2023-03-12T17:52:58.715Z,7.90
2023-03-12T17:55:25.745Z,9.98
2023-03-12T17:57:52.828Z,8.23
2023-03-12T18:00:21.846Z,7.68
2023-03-12T18:02:49.201Z,10.27
2023-03-12T18:05:16.321Z,6.75
2023-03-12T18:07:42.999Z,7.05
2023-03-12T18:10:13.791Z,5.82
2023-03-12T18:12:41.012Z,6.65
2023-03-12T18:15:09.523Z,6.53
2023-03-12T18:17:36.732Z,7.10
2023-03-12T18:20:10.224Z,10.95
2023-03-12T18:22:38.885Z,13.70
2023-03-12T18:25:07.320Z,12.18
2023-03-12T18:27:33.863Z,12.87
2023-03-12T18:30:00.362Z,7.35
2023-03-12T18:32:26.867Z,5.30
2023-03-12T18:34:55.743Z,5.97
2023-03-12T18:37:23.003Z,9.88
2023-03-12T18:39:49.509Z,7.70
2023-03-12T18:42:15.992Z,7.85
2023-03-12T18:44:43.265Z,7.65
2023-03-12T18:47:09.785Z,9.00
2023-03-12T18:49:36.715Z,7.28
2023-03-12T18:52:03.414Z,8.73
2023-03-12T18:54:30.041Z,10.82
2023-03-12T18:56:56.588Z,18.77
2023-03-12T18:59:23.376Z,14.15
2023-03-12T19:01:49.945Z,12.30
2023-03-12T19:04:18.730Z,10.23
2023-03-12T19:06:51.137Z,11.98
2023-03-12T19:09:18.550Z,14.07
2023-03-12T19:11:47.886Z,16.13
2023-03-12T19:14:14.616Z,16.35
2023-03-12T19:16:41.345Z,14.07
2023-03-12T19:19:09.158Z,16.13
2023-03-12T19:21:35.725Z,15.20
2023-03-12T19:24:02.183Z,15.07
2023-03-12T19:26:28.824Z,10.80
2023-03-12T19:28:55.440Z,10.37
2023-03-12T19:31:22.052Z,11.10
2023-03-12T19:33:48.629Z,11.07
2023-03-12T19:36:17.179Z,11.90
2023-03-12T19:38:44.986Z,11.23
2023-03-12T19:41:12.091Z,11.87
2023-03-12T19:43:40.222Z,11.73
2023-03-12T19:46:06.959Z,11.63
2023-03-12T19:48:33.821Z,10.02
2023-03-12T19:51:08.728Z,12.65
2023-03-12T19:53:35.530Z,12.37
2023-03-12T19:56:02.120Z,12.13
2023-03-12T19:58:28.980Z,13.07
2023-03-12T20:00:59.084Z,15.55
2023-03-12T20:03:26.127Z,18.63
2023-03-12T20:05:52.716Z,17.67
2023-03-12T20:08:20.964Z,17.90
2023-03-12T20:10:48.825Z,19.05
2023-03-12T20:13:17.738Z,20.77
2023-03-12T20:15:47.194Z,20.52
2023-03-12T20:18:22.416Z,14.07
2023-03-12T20:20:50.440Z,16.52
2023-03-12T20:23:17.061Z,15.77
2023-03-12T20:25:47.593Z,14.95
2023-03-12T20:28:14.261Z,15.27
2023-03-12T20:30:41.362Z,14.67
2023-03-12T20:33:08.607Z,13.32
2023-03-12T20:35:36.070Z,12.82
2023-03-12T20:38:02.705Z,12.73
2023-03-12T20:40:29.550Z,12.35
2023-03-12T20:42:56.707Z,13.57
2023-03-12T20:45:23.321Z,12.13
2023-03-12T20:47:50.145Z,11.52
2023-03-12T20:50:17.154Z,13.52
2023-03-12T20:52:45.114Z,15.23
2023-03-12T20:55:11.751Z,12.17
2023-03-12T20:57:38.416Z,14.30
2023-03-12T21:00:05.808Z,14.32
2023-03-12T21:02:32.446Z,14.80
2023-03-12T21:04:59.757Z,14.25
2023-03-12T21:07:26.548Z,13.70
2023-03-12T21:09:53.471Z,13.40
2023-03-12T21:12:20.268Z,13.70
2023-03-12T21:14:47.000Z,13.63
2023-03-12T21:17:16.065Z,13.18
2023-03-12T21:19:43.071Z,11.73
2023-03-12T21:22:10.021Z,12.02
2023-03-12T21:24:36.544Z,12.38
2023-03-12T21:27:03.160Z,11.77
2023-03-12T21:29:29.697Z,12.20
2023-03-12T21:31:56.420Z,12.77
2023-03-12T21:34:23.479Z,12.25
2023-03-12T21:36:49.961Z,13.35
2023-03-12T21:39:17.221Z,12.60
2023-03-12T21:41:43.768Z,12.10
2023-03-12T21:44:10.267Z,12.57
2023-03-12T21:46:36.860Z,13.48
2023-03-12T21:49:03.554Z,12.52
2023-03-12T21:51:30.131Z,12.88
2023-03-12T21:53:57.565Z,12.20
2023-03-12T21:56:28.061Z,12.57
2023-03-12T21:58:56.421Z,12.73
2023-03-12T22:01:23.092Z,13.50
2023-03-12T22:03:49.824Z,13.52
2023-03-12T22:06:16.772Z,13.48
2023-03-12T22:08:43.993Z,12.63
2023-03-12T22:11:10.856Z,13.93
2023-03-12T22:13:37.873Z,14.02
2023-03-12T22:16:07.607Z,11.77
2023-03-12T22:18:45.248Z,12.90
2023-03-12T22:21:22.473Z,13.90
2023-03-12T22:23:53.021Z,12.40
2023-03-12T22:26:24.070Z,13.65
2023-03-12T22:28:52.372Z,13.35
2023-03-12T22:31:20.536Z,13.55
2023-03-12T22:33:47.264Z,13.83
2023-03-12T22:36:15.328Z,13.82
2023-03-12T22:38:42.266Z,13.98
2023-03-12T22:41:17.669Z,13.65
2023-03-12T22:43:44.776Z,15.30
2023-03-12T22:46:11.848Z,14.13
2023-03-12T22:48:38.539Z,15.50
2023-03-12T22:51:05.759Z,15.73
2023-03-12T22:53:32.757Z,15.02
2023-03-12T22:56:00.791Z,14.25
2023-03-12T22:58:27.821Z,14.73
2023-03-12T23:01:08.620Z,15.32
2023-03-12T23:03:36.624Z,14.57
2023-03-12T23:06:03.819Z,15.93
2023-03-12T23:08:30.730Z,15.70
2023-03-12T23:11:00.004Z,15.70
2023-03-12T23:13:27.958Z,14.55
2023-03-12T23:15:54.500Z,15.80
2023-03-12T23:18:21.378Z,15.48
2023-03-12T23:20:47.904Z,15.45
2023-03-12T23:23:16.922Z,15.93
2023-03-12T23:25:52.409Z,16.90
2023-03-12T23:28:18.857Z,16.90
2023-03-12T23:30:55.448Z,17.20
2023-03-12T23:33:21.948Z,16.83
2023-03-12T23:35:55.285Z,14.70
2023-03-12T23:38:21.971Z,13.90
2023-03-12T23:40:48.677Z,14.20
2023-03-12T23:43:15.156Z,14.80
2023-03-12T23:45:41.706Z,15.20
2023-03-12T23:48:08.364Z,15.23
2023-03-12T23:50:35.200Z,15.80
2023-03-12T23:53:01.965Z,15.48
2023-03-12T23:55:29.258Z,14.70
2023-03-12T23:57:55.720Z,13.38
